createdAt,value
2018-04-17T00:02:12.368Z,7.97
2018-04-17T00:04:40.649Z,8.13
2018-04-17T00:07:08.929Z,6.40
2018-04-17T00:09:37.250Z,9.10
2018-04-17T00:12:05.560Z,15.13
2018-04-17T00:14:33.853Z,8.47
2018-04-17T00:17:02.136Z,6.60
2018-04-17T00:19:30.443Z,6.97
2018-04-17T00:21:58.735Z,6.90
2018-04-17T00:24:27.066Z,9.23
2018-04-17T00:26:55.359Z,7.23
2018-04-17T00:29:23.681Z,8.63
2018-04-17T00:31:51.955Z,10.10
2018-04-17T00:34:20.239Z,10.30
2018-04-17T00:36:48.531Z,7.83
2018-04-17T00:39:16.832Z,11.43
2018-04-17T00:41:45.130Z,8.50
2018-04-17T00:44:13.440Z,6.60
2018-04-17T00:46:41.752Z,8.10
2018-04-17T00:49:10.075Z,6.40
2018-04-17T00:51:38.398Z,8.40
2018-04-17T00:54:07.671Z,11.47
2018-04-17T00:56:35.987Z,10.20
2018-04-17T00:59:04.296Z,7.53
2018-04-17T01:01:32.611Z,8.73
2018-04-17T01:04:00.935Z,6.00
2018-04-17T01:06:29.247Z,7.40
2018-04-17T01:08:57.579Z,6.90
2018-04-17T01:11:25.896Z,7.90
2018-04-17T01:13:54.187Z,7.33
2018-04-17T01:16:22.477Z,6.63
2018-04-17T01:18:50.779Z,8.43
2018-04-17T01:21:19.100Z,7.77
2018-04-17T01:23:47.384Z,6.30
2018-04-17T01:26:15.732Z,7.43
2018-04-17T01:28:44.021Z,6.20
2018-04-17T01:31:12.320Z,5.87
2018-04-17T01:33:40.583Z,7.60
2018-04-17T01:36:08.859Z,13.07
2018-04-17T01:38:37.171Z,8.73
2018-04-17T01:41:05.456Z,5.77
2018-04-17T01:43:33.716Z,7.37
2018-04-17T01:46:02.027Z,8.93
2018-04-17T01:48:30.359Z,7.30
2018-04-17T01:50:58.635Z,9.80
2018-04-17T01:53:26.951Z,6.90
2018-04-17T01:55:55.282Z,8.93
2018-04-17T01:58:23.586Z,10.17
2018-04-17T02:00:51.909Z,5.67
2018-04-17T02:03:20.211Z,11.70
2018-04-17T02:05:48.539Z,9.23
2018-04-17T02:08:16.824Z,10.10
2018-04-17T02:10:45.122Z,9.00
2018-04-17T02:13:13.383Z,10.00
2018-04-17T02:15:41.710Z,6.65
2018-04-17T02:18:10.016Z,7.45
2018-04-17T02:20:38.316Z,9.20
2018-04-17T02:23:06.647Z,9.15
2018-04-17T02:25:35.032Z,9.82
2018-04-17T02:28:03.324Z,7.97
2018-04-17T02:30:31.632Z,6.70
2018-04-17T02:32:59.907Z,15.90
2018-04-17T02:35:29.244Z,7.55
2018-04-17T02:37:59.597Z,12.32
2018-04-17T02:40:27.879Z,7.43
2018-04-17T02:42:56.179Z,8.25
2018-04-17T02:45:24.512Z,7.90
2018-04-17T02:47:52.809Z,9.05
2018-04-17T02:50:21.113Z,11.45
2018-04-17T02:52:49.420Z,8.50
2018-04-17T02:55:17.690Z,8.90
2018-04-17T02:57:45.998Z,8.73
2018-04-17T03:00:14.315Z,10.40
2018-04-17T03:02:42.621Z,10.05
2018-04-17T03:05:10.913Z,10.00
2018-04-17T03:07:39.256Z,9.75
2018-04-17T03:10:07.549Z,8.82
2018-04-17T03:12:35.851Z,10.02
2018-04-17T03:15:05.171Z,7.87
2018-04-17T03:17:33.452Z,10.23
2018-04-17T03:20:01.751Z,11.38
2018-04-17T03:22:30.098Z,9.07
2018-04-17T03:24:58.380Z,9.50
2018-04-17T03:27:26.679Z,13.10
2018-04-17T03:29:55.053Z,10.00
2018-04-17T03:32:23.363Z,10.82
2018-04-17T03:34:51.714Z,8.77
2018-04-17T03:37:20.103Z,7.60
2018-04-17T03:39:48.437Z,9.75
2018-04-17T03:42:16.724Z,7.75
2018-04-17T03:44:44.996Z,10.65
2018-04-17T03:47:13.336Z,9.05
2018-04-17T03:49:41.673Z,16.37
2018-04-17T03:52:09.983Z,13.25
2018-04-17T03:54:38.412Z,14.43
2018-04-17T03:57:06.711Z,10.80
2018-04-17T03:59:35.043Z,12.50
2018-04-17T04:02:03.362Z,12.02
2018-04-17T04:04:31.712Z,11.45
2018-04-17T04:07:00.096Z,10.65
2018-04-17T04:09:28.397Z,14.93
2018-04-17T04:11:56.707Z,11.10
2018-04-17T04:14:25.036Z,12.90
2018-04-17T04:16:59.393Z,15.57
2018-04-17T04:19:33.968Z,11.07
2018-04-17T04:22:08.508Z,12.57
2018-04-17T04:24:42.973Z,15.05
2018-04-17T04:27:11.257Z,16.58
2018-04-17T04:29:39.595Z,12.65
2018-04-17T04:32:09.989Z,14.77
2018-04-17T04:34:38.828Z,14.68
2018-04-17T04:37:07.127Z,14.43
2018-04-17T04:39:35.452Z,15.73
2018-04-17T04:42:03.803Z,13.70
2018-04-17T04:44:32.107Z,20.02
2018-04-17T04:47:00.427Z,20.48
2018-04-17T04:49:28.688Z,11.65
2018-04-17T04:51:57.080Z,14.57
2018-04-17T04:54:25.396Z,11.63
2018-04-17T04:56:53.823Z,20.45
2018-04-17T04:59:22.195Z,18.35
2018-04-17T05:01:50.520Z,15.02
2018-04-17T05:04:18.803Z,14.75
2018-04-17T05:06:47.115Z,14.27
2018-04-17T05:09:16.477Z,14.95
2018-04-17T05:11:44.775Z,13.93
2018-04-17T05:14:13.091Z,14.40
2018-04-17T05:16:41.470Z,15.13
2018-04-17T05:19:09.751Z,12.25
2018-04-17T05:21:38.032Z,16.27
2018-04-17T05:24:06.348Z,12.90
2018-04-17T05:26:34.623Z,14.40
2018-04-17T05:29:17.891Z,13.40
2018-04-17T05:31:46.191Z,15.30
2018-04-17T05:34:14.535Z,17.65
2018-04-17T05:36:42.813Z,19.60
2018-04-17T05:39:11.095Z,14.02
2018-04-17T05:41:39.432Z,16.65
2018-04-17T05:44:07.699Z,14.52
2018-04-17T05:46:35.980Z,10.70
2018-04-17T05:49:04.305Z,13.07
2018-04-17T05:51:32.623Z,14.73
2018-04-17T05:54:00.955Z,15.83
2018-04-17T05:56:29.219Z,15.70
2018-04-17T05:58:57.484Z,15.50
2018-04-17T06:01:25.810Z,13.88
2018-04-17T06:03:54.115Z,17.23
2018-04-17T06:06:22.395Z,15.53
2018-04-17T06:08:50.680Z,11.50
2018-04-17T06:11:18.997Z,17.00
2018-04-17T06:13:48.392Z,10.03
2018-04-17T06:16:16.672Z,18.83
2018-04-17T06:18:44.971Z,21.93
2018-04-17T06:21:13.247Z,14.73
2018-04-17T06:23:41.604Z,20.50
2018-04-17T06:26:09.926Z,14.63
2018-04-17T06:28:39.431Z,18.10
2018-04-17T06:31:07.808Z,14.23
2018-04-17T06:33:36.127Z,16.73
2018-04-17T06:36:04.435Z,11.90
2018-04-17T06:38:32.733Z,17.50
2018-04-17T06:41:01.098Z,13.40
2018-04-17T06:43:29.380Z,13.70
2018-04-17T06:45:57.679Z,18.93
2018-04-17T06:48:25.988Z,13.83
2018-04-17T06:50:54.280Z,12.07
2018-04-17T06:53:22.568Z,14.83
2018-04-17T06:55:50.875Z,16.30
2018-04-17T06:58:19.239Z,13.47
2018-04-17T07:00:47.540Z,17.77
2018-04-17T07:03:16.799Z,17.00
2018-04-17T07:05:45.080Z,15.90
2018-04-17T07:08:13.375Z,16.40
2018-04-17T07:10:41.702Z,17.70
2018-04-17T07:13:10.012Z,15.30
2018-04-17T07:15:38.295Z,19.03
2018-04-17T07:18:06.588Z,16.60
2018-04-17T07:20:34.915Z,14.90
2018-04-17T07:23:03.215Z,14.37
2018-04-17T07:25:31.535Z,13.60
2018-04-17T07:28:00.923Z,14.13
2018-04-17T07:30:29.200Z,21.00
2018-04-17T07:32:57.483Z,18.50
2018-04-17T07:35:25.815Z,14.60
2018-04-17T07:37:54.144Z,17.07
2018-04-17T07:40:22.536Z,16.47
2018-04-17T07:42:51.791Z,17.10
2018-04-17T07:45:20.075Z,13.90
2018-04-17T07:47:54.684Z,29.07
2018-04-17T07:50:23.001Z,13.70
2018-04-17T07:52:51.289Z,17.17
2018-04-17T07:55:19.580Z,20.53
2018-04-17T07:57:47.884Z,18.37
2018-04-17T08:00:16.197Z,22.50
2018-04-17T08:02:44.500Z,20.00
2018-04-17T08:05:12.811Z,18.10
2018-04-17T08:07:41.113Z,17.90
2018-04-17T08:10:09.394Z,18.70
2018-04-17T08:12:37.699Z,15.87
2018-04-17T08:15:06.028Z,19.40
2018-04-17T08:17:34.359Z,23.80
2018-04-17T08:20:02.607Z,20.27
2018-04-17T08:22:30.882Z,22.50
2018-04-17T08:24:59.179Z,15.43
2018-04-17T08:27:27.471Z,14.80
2018-04-17T08:29:55.773Z,17.50
2018-04-17T08:32:24.106Z,12.57
2018-04-17T08:34:52.398Z,19.23
2018-04-17T08:37:20.685Z,14.53
2018-04-17T08:39:48.991Z,13.57
2018-04-17T08:42:17.239Z,13.97
2018-04-17T08:44:45.568Z,18.03
2018-04-17T08:47:13.854Z,14.10
2018-04-17T08:49:42.135Z,16.07
2018-04-17T08:52:10.432Z,13.60
2018-04-17T08:54:38.720Z,16.63
2018-04-17T08:57:06.963Z,15.00
2018-04-17T08:59:35.296Z,17.40
2018-04-17T09:02:03.599Z,17.43
2018-04-17T09:04:31.896Z,15.33
2018-04-17T09:07:00.200Z,16.17
2018-04-17T09:09:28.467Z,15.97
2018-04-17T09:11:56.806Z,13.60
2018-04-17T09:14:25.103Z,14.07
2018-04-17T09:16:53.419Z,15.00
2018-04-17T09:19:21.679Z,18.90
2018-04-17T09:21:49.956Z,18.17
2018-04-17T09:24:18.259Z,17.10
2018-04-17T09:26:46.535Z,18.30
2018-04-17T09:29:14.939Z,17.20
2018-04-17T09:31:43.188Z,21.50
2018-04-17T09:34:11.484Z,22.40
2018-04-17T09:36:39.819Z,17.97
2018-04-17T09:39:08.102Z,21.03
2018-04-17T09:41:36.393Z,19.50
2018-04-17T09:44:05.724Z,22.10
2018-04-17T09:46:34.016Z,18.40
2018-04-17T09:49:02.284Z,18.17
2018-04-17T09:51:30.569Z,23.17
2018-04-17T09:53:58.879Z,24.33
2018-04-17T09:56:27.175Z,21.03
2018-04-17T09:58:55.476Z,21.33
2018-04-17T10:01:23.796Z,19.00
2018-04-17T10:03:52.109Z,18.43
2018-04-17T10:06:20.443Z,15.80
2018-04-17T10:08:48.782Z,16.80
2018-04-17T10:11:17.037Z,19.13
2018-04-17T10:13:45.351Z,16.83
2018-04-17T10:16:13.655Z,19.07
2018-04-17T10:18:41.967Z,17.93
2018-04-17T10:21:11.366Z,23.20
2018-04-17T10:23:39.681Z,18.53
2018-04-17T10:26:07.988Z,18.97
2018-04-17T10:28:36.296Z,17.83
2018-04-17T10:31:04.603Z,21.93
2018-04-17T10:33:32.913Z,13.93
2018-04-17T10:36:01.196Z,15.90
2018-04-17T10:38:29.508Z,15.87
2018-04-17T10:40:57.829Z,19.33
2018-04-17T10:43:26.157Z,21.53
2018-04-17T10:45:54.463Z,15.47
2018-04-17T10:48:22.715Z,10.67
2018-04-17T10:50:50.991Z,11.83
2018-04-17T10:53:19.243Z,20.40
2018-04-17T10:55:47.561Z,11.47
2018-04-17T10:58:15.844Z,8.97
2018-04-17T11:00:44.108Z,8.97
2018-04-17T11:03:12.435Z,8.87
2018-04-17T11:05:40.751Z,9.50
2018-04-17T11:08:09.048Z,8.03
2018-04-17T11:10:37.360Z,6.70
2018-04-17T11:13:05.659Z,9.10
2018-04-17T11:15:33.962Z,5.90
2018-04-17T11:18:02.284Z,7.57
2018-04-17T11:20:30.575Z,7.23
2018-04-17T11:22:58.868Z,5.43
2018-04-17T11:25:29.756Z,12.77
2018-04-17T11:27:58.063Z,8.70
2018-04-17T11:30:27.387Z,8.00
2018-04-17T11:32:55.664Z,13.00
2018-04-17T11:35:23.959Z,6.03
2018-04-17T11:37:52.304Z,8.60
2018-04-17T11:40:20.582Z,3.37
2018-04-17T11:42:48.939Z,6.30
2018-04-17T11:45:17.208Z,6.80
2018-04-17T11:47:45.501Z,4.00
2018-04-17T11:50:13.819Z,10.30
2018-04-17T11:52:42.140Z,5.17
2018-04-17T11:55:10.421Z,8.47
2018-04-17T11:57:38.715Z,8.97
2018-04-17T12:00:07.000Z,7.80
2018-04-17T12:02:35.263Z,23.63
2018-04-17T12:05:03.556Z,8.40
2018-04-17T12:07:31.923Z,46.70
2018-04-17T12:10:00.240Z,4.83
2018-04-17T12:12:28.500Z,5.70
2018-04-17T12:14:56.787Z,2.40
2018-04-17T12:17:25.076Z,4.30
2018-04-17T12:19:53.395Z,3.77
2018-04-17T12:22:21.683Z,4.60
2018-04-17T12:24:49.954Z,6.13
2018-04-17T12:27:18.224Z,7.47
2018-04-17T12:29:46.522Z,8.10
2018-04-17T12:32:14.851Z,8.03
2018-04-17T12:34:43.164Z,5.13
2018-04-17T12:37:11.591Z,4.13
2018-04-17T12:39:39.872Z,6.33
2018-04-17T12:42:08.138Z,5.10
2018-04-17T12:44:36.420Z,3.60
2018-04-17T12:47:04.696Z,4.57
2018-04-17T12:49:32.951Z,4.50
2018-04-17T12:52:01.350Z,6.57
2018-04-17T12:54:29.576Z,3.87
2018-04-17T12:56:57.900Z,3.67
2018-04-17T12:59:26.229Z,5.00
2018-04-17T13:01:54.500Z,4.10
2018-04-17T13:04:22.908Z,6.07
2018-04-17T13:06:51.235Z,7.60
2018-04-17T13:09:19.557Z,7.17
2018-04-17T13:11:47.897Z,3.60
2018-04-17T13:14:16.213Z,4.13
2018-04-17T13:16:44.473Z,4.83
2018-04-17T13:19:12.954Z,7.37
2018-04-17T13:21:41.273Z,6.13
2018-04-17T13:24:09.587Z,5.67
2018-04-17T13:26:52.842Z,2.90
2018-04-17T13:29:21.104Z,4.30
2018-04-17T13:31:49.386Z,6.03
2018-04-17T13:34:17.637Z,5.30
2018-04-17T13:36:45.923Z,6.03
2018-04-17T13:39:14.232Z,3.57
2018-04-17T13:41:42.523Z,5.07
2018-04-17T13:44:10.833Z,4.70
2018-04-17T13:46:39.136Z,7.73
2018-04-17T13:49:07.426Z,5.43
2018-04-17T13:51:35.696Z,4.30
2018-04-17T13:54:04.018Z,9.37
2018-04-17T13:56:32.311Z,6.67
2018-04-17T13:59:00.576Z,5.73
2018-04-17T14:01:28.859Z,5.93
2018-04-17T14:03:57.152Z,9.07
2018-04-17T14:06:25.419Z,5.73
2018-04-17T14:08:53.714Z,5.07
2018-04-17T14:11:22.019Z,5.63
2018-04-17T14:13:50.279Z,5.60
2018-04-17T14:16:18.595Z,5.10
2018-04-17T14:18:46.852Z,9.60
2018-04-17T14:21:15.108Z,6.40
2018-04-17T14:23:43.403Z,4.63
2018-04-17T14:26:12.687Z,6.33
2018-04-17T14:28:40.969Z,6.30
2018-04-17T14:31:09.276Z,5.50
2018-04-17T14:33:37.523Z,7.93
2018-04-17T14:36:05.791Z,7.93
2018-04-17T14:38:34.067Z,5.30
2018-04-17T14:41:02.312Z,5.70
2018-04-17T14:43:30.603Z,5.67
2018-04-17T14:45:58.908Z,7.70
2018-04-17T14:48:27.201Z,7.10
2018-04-17T14:50:55.490Z,6.00
2018-04-17T14:53:23.780Z,4.67
2018-04-17T14:55:52.071Z,7.10
2018-04-17T14:58:20.333Z,10.20
2018-04-17T15:00:48.661Z,6.40
2018-04-17T15:03:16.977Z,6.37
2018-04-17T15:05:45.306Z,6.40
2018-04-17T15:08:13.668Z,5.13
2018-04-17T15:10:41.971Z,7.43
2018-04-17T15:13:10.230Z,5.63
2018-04-17T15:15:38.561Z,5.33
2018-04-17T15:18:06.861Z,5.50
2018-04-17T15:20:35.123Z,6.27
2018-04-17T15:23:03.455Z,8.00
2018-04-17T15:25:31.733Z,5.90
2018-04-17T15:28:00.021Z,6.50
2018-04-17T15:30:28.293Z,6.80
2018-04-17T15:32:56.605Z,6.10
2018-04-17T15:35:24.917Z,8.47
2018-04-17T15:37:53.210Z,5.13
2018-04-17T15:40:21.507Z,4.90
2018-04-17T15:42:49.772Z,4.83
2018-04-17T15:45:18.044Z,5.87
2018-04-17T15:47:46.358Z,4.83
2018-04-17T15:50:14.664Z,5.50
2018-04-17T15:52:42.970Z,6.60
2018-04-17T15:55:11.232Z,10.37
2018-04-17T15:57:39.505Z,5.27
2018-04-17T16:00:07.781Z,5.63
2018-04-17T16:02:36.084Z,7.30
2018-04-17T16:05:04.359Z,5.70
2018-04-17T16:07:32.653Z,8.50
2018-04-17T16:10:15.843Z,6.87
2018-04-17T16:12:44.187Z,5.80
2018-04-17T16:15:12.467Z,8.00
2018-04-17T16:17:40.755Z,6.23
2018-04-17T16:20:09.040Z,8.70
2018-04-17T16:22:37.371Z,6.00
2018-04-17T16:25:05.789Z,8.43
2018-04-17T16:27:34.075Z,5.77
2018-04-17T16:30:02.367Z,4.00
2018-04-17T16:32:30.607Z,6.60
2018-04-17T16:34:58.988Z,9.23
2018-04-17T16:37:27.284Z,4.97
2018-04-17T16:39:55.579Z,3.53
2018-04-17T16:42:23.864Z,3.23
2018-04-17T16:44:52.140Z,4.63
2018-04-17T16:47:20.424Z,5.17
2018-04-17T16:49:48.787Z,4.20
2018-04-17T16:52:17.080Z,4.97
2018-04-17T16:54:45.373Z,8.23
2018-04-17T16:57:13.673Z,4.60
2018-04-17T16:59:41.976Z,5.10
2018-04-17T17:02:10.272Z,6.00
2018-04-17T17:04:38.603Z,6.37
2018-04-17T17:07:06.879Z,6.23
2018-04-17T17:09:35.241Z,5.50
2018-04-17T17:12:03.588Z,9.80
2018-04-17T17:14:31.896Z,9.20
2018-04-17T17:17:00.234Z,6.77
2018-04-17T17:19:28.532Z,10.50
2018-04-17T17:21:56.827Z,8.00
2018-04-17T17:24:25.236Z,9.80
2018-04-17T17:26:53.596Z,7.87
2018-04-17T17:29:21.924Z,7.57
2018-04-17T17:31:50.204Z,8.93
2018-04-17T17:34:18.507Z,6.30
2018-04-17T17:36:46.809Z,13.20
2018-04-17T17:39:17.011Z,8.60
2018-04-17T17:41:45.320Z,8.53
2018-04-17T17:44:13.585Z,6.90
2018-04-17T17:46:41.927Z,9.53
2018-04-17T17:49:10.233Z,11.00
2018-04-17T17:51:38.539Z,8.37
2018-04-17T17:54:06.847Z,10.50
2018-04-17T17:56:35.268Z,7.40
2018-04-17T17:59:04.603Z,7.50
2018-04-17T18:01:32.883Z,6.87
2018-04-17T18:04:01.194Z,7.93
2018-04-17T18:06:29.519Z,8.83
2018-04-17T18:08:57.824Z,11.37
2018-04-17T18:11:26.117Z,11.20
2018-04-17T18:13:54.435Z,11.73
2018-04-17T18:16:22.727Z,10.90
2018-04-17T18:18:51.028Z,7.70
2018-04-17T18:21:21.443Z,11.83
2018-04-17T18:23:49.759Z,8.63
2018-04-17T18:26:18.027Z,8.03
2018-04-17T18:28:46.308Z,13.07
2018-04-17T18:31:14.627Z,6.60
2018-04-17T18:33:42.908Z,6.67
2018-04-17T18:36:11.242Z,8.60
2018-04-17T18:38:39.519Z,12.43
2018-04-17T18:41:07.841Z,6.27
2018-04-17T18:43:36.127Z,6.63
2018-04-17T18:46:04.477Z,9.40
2018-04-17T18:48:32.780Z,6.23
2018-04-17T18:51:01.075Z,14.87
2018-04-17T18:53:29.352Z,5.57
2018-04-17T18:55:57.679Z,6.00
2018-04-17T18:58:25.947Z,8.53
2018-04-17T19:00:54.252Z,7.87
2018-04-17T19:03:22.575Z,11.07
2018-04-17T19:05:50.847Z,6.77
2018-04-17T19:08:19.132Z,7.97
2018-04-17T19:10:47.448Z,8.83
2018-04-17T19:13:15.739Z,5.97
2018-04-17T19:15:44.092Z,9.43
2018-04-17T19:18:12.387Z,8.53
2018-04-17T19:20:40.683Z,9.73
2018-04-17T19:23:08.966Z,6.63
2018-04-17T19:25:37.291Z,12.03
2018-04-17T19:28:05.584Z,6.43
2018-04-17T19:30:33.883Z,10.57
2018-04-17T19:33:02.293Z,10.20
2018-04-17T19:35:30.576Z,8.37
2018-04-17T19:37:58.869Z,6.50
2018-04-17T19:40:27.156Z,10.50
2018-04-17T19:42:55.476Z,7.20
2018-04-17T19:45:23.959Z,7.53
2018-04-17T19:47:52.157Z,6.93
2018-04-17T19:50:20.540Z,10.87
2018-04-17T19:52:48.831Z,10.13
2018-04-17T19:55:17.131Z,7.07
2018-04-17T19:57:46.529Z,7.77
2018-04-17T20:00:14.837Z,7.13
2018-04-17T20:02:43.130Z,6.30
2018-04-17T20:05:12.416Z,4.70
2018-04-17T20:07:40.688Z,7.60
2018-04-17T20:10:09.004Z,6.53
2018-04-17T20:12:37.311Z,14.70
2018-04-17T20:15:05.626Z,7.27
2018-04-17T20:17:33.928Z,6.23
2018-04-17T20:20:02.251Z,10.17
2018-04-17T20:22:30.561Z,7.70
2018-04-17T20:24:58.893Z,15.87
2018-04-17T20:27:27.204Z,7.50
2018-04-17T20:29:55.487Z,7.30
2018-04-17T20:32:23.777Z,6.83
2018-04-17T20:34:53.095Z,11.00
2018-04-17T20:37:21.427Z,9.90
2018-04-17T20:39:49.739Z,11.50
2018-04-17T20:42:18.067Z,9.23
2018-04-17T20:44:46.452Z,9.93
2018-04-17T20:47:14.747Z,8.70
2018-04-17T20:49:43.044Z,14.10
2018-04-17T20:52:11.359Z,6.53
2018-04-17T20:54:39.701Z,10.00
2018-04-17T20:57:08.028Z,13.27
2018-04-17T20:59:36.352Z,10.60
2018-04-17T21:02:04.676Z,8.90
2018-04-17T21:04:32.964Z,7.90
2018-04-17T21:07:01.244Z,10.70
2018-04-17T21:09:29.560Z,9.40
2018-04-17T21:11:57.868Z,13.03
2018-04-17T21:14:26.216Z,9.57
2018-04-17T21:16:54.545Z,11.77
2018-04-17T21:19:22.832Z,11.47
2018-04-17T21:21:51.179Z,11.10
2018-04-17T21:24:19.495Z,9.47
2018-04-17T21:26:47.788Z,9.93
2018-04-17T21:29:16.076Z,11.03
2018-04-17T21:31:44.367Z,12.60
2018-04-17T21:34:12.700Z,9.53
2018-04-17T21:36:41.015Z,11.20
2018-04-17T21:39:09.324Z,9.20
2018-04-17T21:41:37.695Z,7.50
2018-04-17T21:44:05.977Z,16.80
2018-04-17T21:46:34.312Z,11.83
2018-04-17T21:49:02.624Z,9.80
2018-04-17T21:51:30.948Z,9.20
2018-04-17T21:53:59.252Z,11.57
2018-04-17T21:56:27.536Z,9.30
2018-04-17T21:58:55.842Z,14.63
2018-04-17T22:01:27.183Z,10.00
2018-04-17T22:03:55.508Z,11.70
2018-04-17T22:06:23.815Z,10.13
2018-04-17T22:08:52.098Z,11.47
2018-04-17T22:11:20.399Z,16.10
2018-04-17T22:13:48.735Z,12.10
2018-04-17T22:16:17.048Z,9.33
2018-04-17T22:18:45.339Z,12.40
2018-04-17T22:21:13.670Z,10.40
2018-04-17T22:23:41.972Z,15.00
2018-04-17T22:26:10.272Z,10.67
2018-04-17T22:28:39.772Z,9.30
2018-04-17T22:31:08.088Z,11.03
2018-04-17T22:33:36.468Z,11.83
2018-04-17T22:36:04.780Z,10.80
2018-04-17T22:38:34.088Z,10.57
2018-04-17T22:41:02.397Z,15.17
2018-04-17T22:43:30.731Z,13.80
2018-04-17T22:45:59.039Z,10.10
2018-04-17T22:48:28.393Z,11.60
2018-04-17T22:50:56.716Z,10.27
2018-04-17T22:53:25.058Z,10.50
2018-04-17T22:55:53.447Z,8.73
2018-04-17T22:58:21.772Z,8.20
2018-04-17T23:00:50.093Z,11.83
2018-04-17T23:03:18.357Z,12.10
2018-04-17T23:05:46.672Z,13.73
2018-04-17T23:08:15.968Z,9.73
2018-04-17T23:10:44.244Z,10.23
2018-04-17T23:13:12.568Z,15.67
2018-04-17T23:15:40.861Z,9.50
2018-04-17T23:18:09.151Z,8.20
2018-04-17T23:20:37.455Z,8.83
2018-04-17T23:23:05.731Z,13.77
2018-04-17T23:25:34.027Z,10.23
2018-04-17T23:28:02.376Z,14.63
2018-04-17T23:30:30.688Z,10.47
2018-04-17T23:32:58.999Z,14.37
2018-04-17T23:35:27.300Z,12.13
2018-04-17T23:37:55.616Z,10.13
2018-04-17T23:40:23.928Z,13.53
2018-04-17T23:42:52.231Z,10.50
2018-04-17T23:45:20.527Z,13.50
2018-04-17T23:47:48.813Z,11.30
2018-04-17T23:50:17.124Z,9.50
2018-04-17T23:52:45.404Z,11.70
2018-04-17T23:55:13.751Z,11.50
2018-04-17T23:57:43.123Z,9.30
